sensor_id;sensor_type;location;lat;lon;timestamp;pressure;altitude;pressure_sealevel;temperature;humidity
10688;BME280;5392;42.688;23.298;2024-02-28T00:02:09;95194.59;;;7.78;68.23
10688;BME280;5392;42.688;23.298;2024-02-28T00:04:34;95182.81;;;7.84;67.46
10688;BME280;5392;42.688;23.298;2024-02-28T00:06:59;95192.03;;;7.78;66.13
10688;BME280;5392;42.688;23.298;2024-02-28T00:09:25;95195.13;;;7.74;66.71
10688;BME280;5392;42.688;23.298;2024-02-28T00:14:35;95200.16;;;7.67;66.72
10688;BME280;5392;42.688;23.298;2024-02-28T00:17:00;95192.69;;;7.58;66.68
10688;BME280;5392;42.688;23.298;2024-02-28T00:19:26;95194.66;;;7.56;66.81
10688;BME280;5392;42.688;23.298;2024-02-28T00:21:51;95197.84;;;7.35;67.99
10688;BME280;5392;42.688;23.298;2024-02-28T00:24:17;95199.28;;;7.38;67.92
10688;BME280;5392;42.688;23.298;2024-02-28T00:26:43;95194.44;;;7.43;68.20
10688;BME280;5392;42.688;23.298;2024-02-28T00:29:11;95200.19;;;7.45;67.86
10688;BME280;5392;42.688;23.298;2024-02-28T00:31:37;95192.50;;;7.45;67.86
10688;BME280;5392;42.688;23.298;2024-02-28T00:34:03;95187.69;;;7.42;68.06
10688;BME280;5392;42.688;23.298;2024-02-28T00:36:28;95193.19;;;7.39;67.91
10688;BME280;5392;42.688;23.298;2024-02-28T00:38:53;95191.28;;;7.32;68.02
10688;BME280;5392;42.688;23.298;2024-02-28T00:41:19;95189.09;;;7.29;67.86
10688;BME280;5392;42.688;23.298;2024-02-28T00:43:44;95184.28;;;7.26;67.99
10688;BME280;5392;42.688;23.298;2024-02-28T00:46:10;95197.97;;;7.19;68.12
10688;BME280;5392;42.688;23.298;2024-02-28T00:48:40;95190.84;;;7.06;68.68
10688;BME280;5392;42.688;23.298;2024-02-28T00:51:05;95190.97;;;7.13;68.53
10688;BME280;5392;42.688;23.298;2024-02-28T00:53:31;95188.09;;;7.08;68.76
10688;BME280;5392;42.688;23.298;2024-02-28T00:55:57;95192.59;;;7.06;69.26
10688;BME280;5392;42.688;23.298;2024-02-28T00:58:22;95190.22;;;7.04;68.66
10688;BME280;5392;42.688;23.298;2024-02-28T01:00:48;95195.22;;;6.98;69.06
10688;BME280;5392;42.688;23.298;2024-02-28T01:03:14;95190.72;;;7.00;68.97
10688;BME280;5392;42.688;23.298;2024-02-28T01:05:41;95199.19;;;6.78;69.79
10688;BME280;5392;42.688;23.298;2024-02-28T01:08:06;95205.16;;;6.70;70.81
10688;BME280;5392;42.688;23.298;2024-02-28T01:10:33;95200.00;;;6.78;69.68
10688;BME280;5392;42.688;23.298;2024-02-28T01:12:58;95203.69;;;6.76;70.41
10688;BME280;5392;42.688;23.298;2024-02-28T01:15:24;95195.94;;;6.84;70.43
10688;BME280;5392;42.688;23.298;2024-02-28T01:17:49;95198.34;;;6.85;70.01
10688;BME280;5392;42.688;23.298;2024-02-28T01:20:15;95203.63;;;6.84;70.55
10688;BME280;5392;42.688;23.298;2024-02-28T01:22:40;95197.66;;;6.69;70.78
10688;BME280;5392;42.688;23.298;2024-02-28T01:25:06;95202.59;;;6.70;70.24
10688;BME280;5392;42.688;23.298;2024-02-28T01:27:32;95205.44;;;6.75;70.23
10688;BME280;5392;42.688;23.298;2024-02-28T01:29:57;95199.19;;;6.78;70.93
10688;BME280;5392;42.688;23.298;2024-02-28T01:32:23;95197.47;;;6.70;70.66
10688;BME280;5392;42.688;23.298;2024-02-28T01:34:48;95200.38;;;6.67;71.48
10688;BME280;5392;42.688;23.298;2024-02-28T01:37:14;95210.28;;;6.70;70.65
10688;BME280;5392;42.688;23.298;2024-02-28T01:39:40;95211.63;;;6.58;71.77
10688;BME280;5392;42.688;23.298;2024-02-28T01:42:05;95217.81;;;6.63;71.07
10688;BME280;5392;42.688;23.298;2024-02-28T01:44:31;95213.34;;;6.66;71.75
10688;BME280;5392;42.688;23.298;2024-02-28T01:46:59;95216.53;;;6.68;71.57
10688;BME280;5392;42.688;23.298;2024-02-28T01:49:25;95214.13;;;6.66;70.59
10688;BME280;5392;42.688;23.298;2024-02-28T01:51:52;95219.44;;;6.65;71.18
10688;BME280;5392;42.688;23.298;2024-02-28T01:54:20;95221.38;;;6.63;71.38
10688;BME280;5392;42.688;23.298;2024-02-28T01:56:46;95221.19;;;6.64;71.22
10688;BME280;5392;42.688;23.298;2024-02-28T01:59:12;95221.03;;;6.66;72.05
10688;BME280;5392;42.688;23.298;2024-02-28T02:01:38;95218.81;;;6.63;71.89
10688;BME280;5392;42.688;23.298;2024-02-28T02:04:04;95215.94;;;6.57;71.13
10688;BME280;5392;42.688;23.298;2024-02-28T02:06:31;95216.91;;;6.56;72.15
10688;BME280;5392;42.688;23.298;2024-02-28T02:08:57;95222.66;;;6.58;72.07
10688;BME280;5392;42.688;23.298;2024-02-28T02:11:23;95216.50;;;6.45;72.59
10688;BME280;5392;42.688;23.298;2024-02-28T02:13:50;95215.69;;;6.44;71.86
10688;BME280;5392;42.688;23.298;2024-02-28T02:16:16;95212.78;;;6.47;71.79
10688;BME280;5392;42.688;23.298;2024-02-28T02:18:41;95219.31;;;6.50;72.84
10688;BME280;5392;42.688;23.298;2024-02-28T02:21:08;95215.19;;;6.49;72.59
10688;BME280;5392;42.688;23.298;2024-02-28T02:23:35;95208.75;;;6.53;72.93
10688;BME280;5392;42.688;23.298;2024-02-28T02:26:00;95208.81;;;6.45;72.20
10688;BME280;5392;42.688;23.298;2024-02-28T02:28:26;95210.06;;;6.49;71.67
10688;BME280;5392;42.688;23.298;2024-02-28T02:30:51;95208.81;;;6.45;71.82
10688;BME280;5392;42.688;23.298;2024-02-28T02:33:17;95218.69;;;6.48;72.14
10688;BME280;5392;42.688;23.298;2024-02-28T02:35:43;95215.69;;;6.44;72.35
10688;BME280;5392;42.688;23.298;2024-02-28T02:38:09;95220.44;;;6.47;72.31
10688;BME280;5392;42.688;23.298;2024-02-28T02:40:34;95221.94;;;6.42;72.28
10688;BME280;5392;42.688;23.298;2024-02-28T02:43:00;95216.00;;;6.41;73.25
10688;BME280;5392;42.688;23.298;2024-02-28T02:45:25;95225.28;;;6.42;72.65
10688;BME280;5392;42.688;23.298;2024-02-28T02:47:50;95221.75;;;6.43;72.91
10688;BME280;5392;42.688;23.298;2024-02-28T02:50:16;95226.06;;;6.43;73.09
10688;BME280;5392;42.688;23.298;2024-02-28T02:52:42;95226.56;;;6.38;73.49
10688;BME280;5392;42.688;23.298;2024-02-28T02:55:07;95220.69;;;6.30;72.83
10688;BME280;5392;42.688;23.298;2024-02-28T02:57:33;95215.75;;;6.28;73.01
10688;BME280;5392;42.688;23.298;2024-02-28T02:59:58;95218.28;;;6.28;73.11
10688;BME280;5392;42.688;23.298;2024-02-28T03:02:24;95215.91;;;6.27;72.70
10688;BME280;5392;42.688;23.298;2024-02-28T03:04:49;95217.34;;;6.29;73.17
10688;BME280;5392;42.688;23.298;2024-02-28T03:07:15;95219.09;;;6.29;73.19
10688;BME280;5392;42.688;23.298;2024-02-28T03:09:41;95217.34;;;6.29;73.75
10688;BME280;5392;42.688;23.298;2024-02-28T03:12:07;95222.78;;;6.26;73.13
10688;BME280;5392;42.688;23.298;2024-02-28T03:14:32;95220.69;;;6.30;73.72
10688;BME280;5392;42.688;23.298;2024-02-28T03:16:58;95218.28;;;6.28;74.23
10688;BME280;5392;42.688;23.298;2024-02-28T03:19:23;95225.03;;;6.29;73.75
10688;BME280;5392;42.688;23.298;2024-02-28T03:21:49;95220.84;;;6.28;74.48
10688;BME280;5392;42.688;23.298;2024-02-28T03:24:14;95216.91;;;6.18;74.93
10688;BME280;5392;42.688;23.298;2024-02-28T03:26:40;95226.19;;;6.03;75.13
10688;BME280;5392;42.688;23.298;2024-02-28T03:29:05;95218.50;;;6.03;74.33
10688;BME280;5392;42.688;23.298;2024-02-28T03:31:31;95224.78;;;6.00;74.39
10688;BME280;5392;42.688;23.298;2024-02-28T03:33:56;95225.59;;;5.84;74.64
10688;BME280;5392;42.688;23.298;2024-02-28T03:36:22;95231.97;;;5.97;75.30
10688;BME280;5392;42.688;23.298;2024-02-28T03:38:47;95234.84;;;6.02;74.75
10688;BME280;5392;42.688;23.298;2024-02-28T03:41:13;95236.09;;;6.06;74.04
10688;BME280;5392;42.688;23.298;2024-02-28T03:43:38;95242.03;;;6.06;73.71
10688;BME280;5392;42.688;23.298;2024-02-28T03:46:04;95244.59;;;6.06;74.72
10688;BME280;5392;42.688;23.298;2024-02-28T03:48:29;95242.22;;;6.05;74.73
10688;BME280;5392;42.688;23.298;2024-02-28T03:50:55;95254.69;;;6.00;74.83
10688;BME280;5392;42.688;23.298;2024-02-28T03:53:20;95243.63;;;5.99;73.75
10688;BME280;5392;42.688;23.298;2024-02-28T03:55:46;95240.78;;;6.02;74.48
10688;BME280;5392;42.688;23.298;2024-02-28T03:58:11;95246.03;;;6.01;74.68
10688;BME280;5392;42.688;23.298;2024-02-28T04:00:37;95244.94;;;5.95;74.39
10688;BME280;5392;42.688;23.298;2024-02-28T04:03:04;95244.44;;;5.92;74.27
10688;BME280;5392;42.688;23.298;2024-02-28T04:05:30;95239.31;;;5.92;75.21
10688;BME280;5392;42.688;23.298;2024-02-28T04:07:56;95243.50;;;5.84;75.60
10688;BME280;5392;42.688;23.298;2024-02-28T04:10:21;95243.34;;;5.86;75.66
10688;BME280;5392;42.688;23.298;2024-02-28T04:12:47;95233.28;;;5.84;75.09
10688;BME280;5392;42.688;23.298;2024-02-28T04:15:12;95231.50;;;5.85;75.61
10688;BME280;5392;42.688;23.298;2024-02-28T04:17:39;95236.94;;;5.82;77.09
10688;BME280;5392;42.688;23.298;2024-02-28T04:20:08;95231.50;;;5.85;nan
10688;BME280;5392;42.688;23.298;2024-02-28T04:22:34;95232.63;;;5.91;76.39
10688;BME280;5392;42.688;23.298;2024-02-28T04:24:59;95234.06;;;5.93;76.63
10688;BME280;5392;42.688;23.298;2024-02-28T04:27:25;95236.00;;;5.91;75.91
10688;BME280;5392;42.688;23.298;2024-02-28T04:29:50;95237.09;;;5.72;76.58
10688;BME280;5392;42.688;23.298;2024-02-28T04:32:16;95232.28;;;5.69;76.76
10688;BME280;5392;42.688;23.298;2024-02-28T04:34:41;95230.06;;;5.50;77.04
10688;BME280;5392;42.688;23.298;2024-02-28T04:37:08;95227.34;;;5.60;76.96
10688;BME280;5392;42.688;23.298;2024-02-28T04:39:33;95228.16;;;5.68;75.73
10688;BME280;5392;42.688;23.298;2024-02-28T04:41:59;95232.91;;;5.71;75.47
10688;BME280;5392;42.688;23.298;2024-02-28T04:44:24;95240.59;;;5.71;75.49
10688;BME280;5392;42.688;23.298;2024-02-28T04:46:50;95239.97;;;5.69;75.14
10688;BME280;5392;42.688;23.298;2024-02-28T04:49:15;95238.22;;;5.70;75.26
10688;BME280;5392;42.688;23.298;2024-02-28T04:51:41;95241.09;;;5.59;75.54
10688;BME280;5392;42.688;23.298;2024-02-28T04:54:06;95236.47;;;5.62;76.25
10688;BME280;5392;42.688;23.298;2024-02-28T04:56:32;95242.50;;;5.69;75.48
10688;BME280;5392;42.688;23.298;2024-02-28T04:58:57;95247.97;;;5.66;75.96
10688;BME280;5392;42.688;23.298;2024-02-28T05:01:23;95254.84;;;5.58;76.44
10688;BME280;5392;42.688;23.298;2024-02-28T05:03:48;95251.47;;;5.41;78.21
10688;BME280;5392;42.688;23.298;2024-02-28T05:06:14;95252.91;;;5.52;77.40
10688;BME280;5392;42.688;23.298;2024-02-28T05:08:39;95256.13;;;5.62;76.68
10688;BME280;5392;42.688;23.298;2024-02-28T05:11:05;95253.09;;;5.66;75.87
10688;BME280;5392;42.688;23.298;2024-02-28T05:13:30;95259.31;;;5.64;76.18
10688;BME280;5392;42.688;23.298;2024-02-28T05:15:56;95267.16;;;5.62;76.27
10688;BME280;5392;42.688;23.298;2024-02-28T05:18:21;95269.53;;;5.64;76.51
10688;BME280;5392;42.688;23.298;2024-02-28T05:20:47;95266.16;;;5.71;76.15
10688;BME280;5392;42.688;23.298;2024-02-28T05:23:12;95274.31;;;5.83;75.67
10688;BME280;5392;42.688;23.298;2024-02-28T05:25:38;95277.56;;;5.93;75.45
10688;BME280;5392;42.688;23.298;2024-02-28T05:28:04;95272.09;;;6.04;75.51
10688;BME280;5392;42.688;23.298;2024-02-28T05:30:29;95283.44;;;6.18;74.68
10688;BME280;5392;42.688;23.298;2024-02-28T05:32:55;95277.31;;;6.35;73.95
10688;BME280;5392;42.688;23.298;2024-02-28T05:35:21;95284.59;;;6.54;73.84
10688;BME280;5392;42.688;23.298;2024-02-28T05:37:46;95281.53;;;6.67;72.72
10688;BME280;5392;42.688;23.298;2024-02-28T05:40:12;95294.19;;;6.99;72.29
10688;BME280;5392;42.688;23.298;2024-02-28T05:42:38;95290.38;;;7.25;71.16
10688;BME280;5392;42.688;23.298;2024-02-28T05:45:05;95297.94;;;7.50;70.29
10688;BME280;5392;42.688;23.298;2024-02-28T05:47:31;95306.88;;;7.54;70.41
10688;BME280;5392;42.688;23.298;2024-02-28T05:49:57;95304.81;;;7.94;68.72
10688;BME280;5392;42.688;23.298;2024-02-28T05:52:24;95306.63;;;8.46;66.89
10688;BME280;5392;42.688;23.298;2024-02-28T05:54:52;95306.44;;;8.76;65.67
10688;BME280;5392;42.688;23.298;2024-02-28T05:57:18;95304.94;;;8.97;65.35
10688;BME280;5392;42.688;23.298;2024-02-28T05:59:43;95308.06;;;9.28;64.19
10688;BME280;5392;42.688;23.298;2024-02-28T06:02:09;95311.97;;;9.60;63.74
10688;BME280;5392;42.688;23.298;2024-02-28T06:04:35;95309.00;;;10.26;62.02
10688;BME280;5392;42.688;23.298;2024-02-28T06:07:00;95311.28;;;11.04;59.39
10688;BME280;5392;42.688;23.298;2024-02-28T06:09:26;95312.91;;;11.85;56.28
10688;BME280;5392;42.688;23.298;2024-02-28T06:11:55;95312.53;;;12.60;54.06
10688;BME280;5392;42.688;23.298;2024-02-28T06:14:20;95318.00;;;13.16;51.80
10688;BME280;5392;42.688;23.298;2024-02-28T06:16:48;95314.53;;;13.73;50.37
10688;BME280;5392;42.688;23.298;2024-02-28T06:19:14;95311.16;;;14.35;49.48
10688;BME280;5392;42.688;23.298;2024-02-28T06:21:39;95321.41;;;14.91;46.57
10688;BME280;5392;42.688;23.298;2024-02-28T06:24:05;95320.81;;;15.43;45.53
10688;BME280;5392;42.688;23.298;2024-02-28T06:26:31;95328.03;;;15.89;44.38
10688;BME280;5392;42.688;23.298;2024-02-28T06:28:56;95323.50;;;15.84;43.41
10688;BME280;5392;42.688;23.298;2024-02-28T06:31:26;95325.44;;;16.42;42.23
10688;BME280;5392;42.688;23.298;2024-02-28T06:33:52;95322.88;;;16.76;41.81
10688;BME280;5392;42.688;23.298;2024-02-28T06:36:17;95325.13;;;14.27;47.22
10688;BME280;5392;42.688;23.298;2024-02-28T06:38:43;95322.22;;;15.75;44.79
10688;BME280;5392;42.688;23.298;2024-02-28T06:41:08;95324.06;;;16.28;42.87
10688;BME280;5392;42.688;23.298;2024-02-28T06:43:34;95328.97;;;16.59;41.88
10688;BME280;5392;42.688;23.298;2024-02-28T06:46:01;95317.28;;;17.31;40.79
10688;BME280;5392;42.688;23.298;2024-02-28T06:48:27;95325.38;;;17.46;39.38
10688;BME280;5392;42.688;23.298;2024-02-28T06:50:53;95327.69;;;17.31;40.00
10688;BME280;5392;42.688;23.298;2024-02-28T06:53:18;95334.00;;;17.46;40.07
10688;BME280;5392;42.688;23.298;2024-02-28T06:55:44;95326.50;;;16.75;41.15
10688;BME280;5392;42.688;23.298;2024-02-28T06:58:11;95331.59;;;16.06;41.75
10688;BME280;5392;42.688;23.298;2024-02-28T07:00:36;95333.22;;;16.30;41.82
10688;BME280;5392;42.688;23.298;2024-02-28T07:03:02;95323.50;;;15.55;43.36
10688;BME280;5392;42.688;23.298;2024-02-28T07:05:27;95330.19;;;16.33;41.73
10688;BME280;5392;42.688;23.298;2024-02-28T07:07:53;95321.53;;;16.51;42.08
10688;BME280;5392;42.688;23.298;2024-02-28T07:10:19;95320.06;;;18.09;39.09
10688;BME280;5392;42.688;23.298;2024-02-28T07:12:44;95313.06;;;17.98;39.38
10688;BME280;5392;42.688;23.298;2024-02-28T07:15:10;95323.75;;;18.58;38.05
10688;BME280;5392;42.688;23.298;2024-02-28T07:17:35;95327.56;;;17.26;39.96
10688;BME280;5392;42.688;23.298;2024-02-28T07:20:01;95324.13;;;18.83;36.45
10688;BME280;5392;42.688;23.298;2024-02-28T07:22:26;95331.28;;;17.81;39.27
10688;BME280;5392;42.688;23.298;2024-02-28T07:24:52;95329.28;;;18.45;37.50
10688;BME280;5392;42.688;23.298;2024-02-28T07:27:17;95326.63;;;18.11;37.45
10688;BME280;5392;42.688;23.298;2024-02-28T07:29:43;95331.03;;;15.74;43.12
10688;BME280;5392;42.688;23.298;2024-02-28T07:32:09;95331.94;;;16.97;41.39
10688;BME280;5392;42.688;23.298;2024-02-28T07:34:35;95337.53;;;15.65;42.58
10688;BME280;5392;42.688;23.298;2024-02-28T07:37:00;95330.59;;;16.19;42.01
10688;BME280;5392;42.688;23.298;2024-02-28T07:39:26;95331.56;;;17.17;39.74
10688;BME280;5392;42.688;23.298;2024-02-28T07:41:52;95336.31;;;18.77;37.50
10688;BME280;5392;42.688;23.298;2024-02-28T07:44:18;95324.09;;;19.38;34.93
10688;BME280;5392;42.688;23.298;2024-02-28T07:46:43;95329.84;;;16.41;40.93
10688;BME280;5392;42.688;23.298;2024-02-28T07:49:09;95332.00;;;17.25;38.59
10688;BME280;5392;42.688;23.298;2024-02-28T07:51:36;95325.66;;;18.01;38.23
10688;BME280;5392;42.688;23.298;2024-02-28T07:54:02;95336.53;;;18.43;37.48
10688;BME280;5392;42.688;23.298;2024-02-28T07:56:29;95329.38;;;19.64;35.11
10688;BME280;5392;42.688;23.298;2024-02-28T07:58:54;95325.31;;;20.95;33.08
10688;BME280;5392;42.688;23.298;2024-02-28T08:01:19;95329.28;;;22.77;29.84
10688;BME280;5392;42.688;23.298;2024-02-28T08:03:47;95337.13;;;17.09;38.18
10688;BME280;5392;42.688;23.298;2024-02-28T08:06:13;95331.78;;;14.48;44.79
10688;BME280;5392;42.688;23.298;2024-02-28T08:08:38;95341.13;;;13.93;47.02
10688;BME280;5392;42.688;23.298;2024-02-28T08:11:03;95324.13;;;14.78;46.55
10688;BME280;5392;42.688;23.298;2024-02-28T08:13:29;95317.72;;;18.74;37.07
10688;BME280;5392;42.688;23.298;2024-02-28T08:15:55;95327.63;;;21.34;32.39
10688;BME280;5392;42.688;23.298;2024-02-28T08:18:21;95323.22;;;22.52;30.21
10688;BME280;5392;42.688;23.298;2024-02-28T08:20:47;95325.28;;;22.04;30.44
10688;BME280;5392;42.688;23.298;2024-02-28T08:23:12;95320.94;;;20.32;33.38
10688;BME280;5392;42.688;23.298;2024-02-28T08:25:38;95320.63;;;18.77;36.30
10688;BME280;5392;42.688;23.298;2024-02-28T08:28:04;95322.47;;;14.40;46.60
10688;BME280;5392;42.688;23.298;2024-02-28T08:30:29;95320.50;;;15.69;44.51
10688;BME280;5392;42.688;23.298;2024-02-28T08:32:56;95324.69;;;16.88;41.21
10688;BME280;5392;42.688;23.298;2024-02-28T08:35:22;95317.09;;;16.74;41.72
10688;BME280;5392;42.688;23.298;2024-02-28T08:37:49;95316.97;;;16.93;40.77
10688;BME280;5392;42.688;23.298;2024-02-28T08:40:14;95311.25;;;17.30;40.23
10688;BME280;5392;42.688;23.298;2024-02-28T08:42:40;95308.88;;;17.29;40.84
10688;BME280;5392;42.688;23.298;2024-02-28T08:45:07;95310.66;;;17.00;41.22
10688;BME280;5392;42.688;23.298;2024-02-28T08:47:33;95313.75;;;17.25;41.16
10688;BME280;5392;42.688;23.298;2024-02-28T08:49:58;95314.16;;;16.59;41.98
10688;BME280;5392;42.688;23.298;2024-02-28T08:52:24;95297.13;;;17.26;40.91
10688;BME280;5392;42.688;23.298;2024-02-28T08:54:50;95306.69;;;16.86;41.89
10688;BME280;5392;42.688;23.298;2024-02-28T08:57:15;95304.44;;;16.66;42.18
10688;BME280;5392;42.688;23.298;2024-02-28T08:59:41;95303.13;;;16.23;43.31
10688;BME280;5392;42.688;23.298;2024-02-28T09:02:07;95298.22;;;16.03;43.82
10688;BME280;5392;42.688;23.298;2024-02-28T09:04:33;95297.50;;;15.55;45.11
10688;BME280;5392;42.688;23.298;2024-02-28T09:06:59;95299.97;;;15.13;45.80
10688;BME280;5392;42.688;23.298;2024-02-28T09:09:24;95301.22;;;14.75;47.29
10688;BME280;5392;42.688;23.298;2024-02-28T09:11:50;95309.91;;;14.80;46.87
10688;BME280;5392;42.688;23.298;2024-02-28T09:14:15;95312.00;;;14.72;47.29
10688;BME280;5392;42.688;23.298;2024-02-28T09:16:40;95305.34;;;14.57;47.33
10688;BME280;5392;42.688;23.298;2024-02-28T09:19:06;95311.06;;;14.66;46.56
10688;BME280;5392;42.688;23.298;2024-02-28T09:21:31;95303.00;;;14.25;47.81
10688;BME280;5392;42.688;23.298;2024-02-28T09:23:57;95303.88;;;14.68;48.02
10688;BME280;5392;42.688;23.298;2024-02-28T09:26:22;95303.56;;;14.76;47.67
10688;BME280;5392;42.688;23.298;2024-02-28T09:28:48;95297.38;;;14.77;46.25
10688;BME280;5392;42.688;23.298;2024-02-28T09:31:13;95296.59;;;14.77;46.30
10688;BME280;5392;42.688;23.298;2024-02-28T09:33:41;95289.59;;;14.77;46.77
10688;BME280;5392;42.688;23.298;2024-02-28T09:36:06;95290.38;;;14.96;46.52
10688;BME280;5392;42.688;23.298;2024-02-28T09:38:32;95281.78;;;15.13;46.58
10688;BME280;5392;42.688;23.298;2024-02-28T09:41:00;95276.44;;;15.45;46.02
10688;BME280;5392;42.688;23.298;2024-02-28T09:43:32;95277.88;;;16.00;44.68
10688;BME280;5392;42.688;23.298;2024-02-28T09:46:03;95282.84;;;14.51;48.21
10688;BME280;5392;42.688;23.298;2024-02-28T09:48:29;95285.38;;;13.46;50.08
10688;BME280;5392;42.688;23.298;2024-02-28T09:50:57;95274.03;;;14.77;47.43
10688;BME280;5392;42.688;23.298;2024-02-28T09:53:23;95271.00;;;15.64;45.08
10688;BME280;5392;42.688;23.298;2024-02-28T09:55:50;95267.84;;;16.15;43.68
10688;BME280;5392;42.688;23.298;2024-02-28T09:58:17;95267.75;;;16.33;43.42
10688;BME280;5392;42.688;23.298;2024-02-28T10:00:44;95265.81;;;16.29;43.15
10688;BME280;5392;42.688;23.298;2024-02-28T10:03:12;95266.94;;;16.33;42.91
10688;BME280;5392;42.688;23.298;2024-02-28T10:05:39;95260.41;;;14.82;45.85
10688;BME280;5392;42.688;23.298;2024-02-28T10:08:05;95263.81;;;14.15;48.69
10688;BME280;5392;42.688;23.298;2024-02-28T10:10:31;95265.66;;;13.83;49.71
10688;BME280;5392;42.688;23.298;2024-02-28T10:12:57;95275.75;;;13.91;48.06
10688;BME280;5392;42.688;23.298;2024-02-28T10:15:26;95264.34;;;14.23;47.13
10688;BME280;5392;42.688;23.298;2024-02-28T10:17:52;95260.66;;;15.28;45.52
10688;BME280;5392;42.688;23.298;2024-02-28T10:20:17;95256.06;;;16.01;43.38
10688;BME280;5392;42.688;23.298;2024-02-28T10:22:43;95254.16;;;15.37;44.91
10688;BME280;5392;42.688;23.298;2024-02-28T10:25:08;95257.63;;;14.40;47.14
10688;BME280;5392;42.688;23.298;2024-02-28T10:27:34;95251.63;;;15.30;44.41
10688;BME280;5392;42.688;23.298;2024-02-28T10:30:01;95242.84;;;16.14;43.00
10688;BME280;5392;42.688;23.298;2024-02-28T10:32:31;95239.44;;;16.02;42.40
10688;BME280;5392;42.688;23.298;2024-02-28T10:34:58;95237.41;;;16.39;42.20
10688;BME280;5392;42.688;23.298;2024-02-28T10:37:24;95229.84;;;16.49;41.48
10688;BME280;5392;42.688;23.298;2024-02-28T10:39:51;95235.00;;;16.02;42.52
10688;BME280;5392;42.688;23.298;2024-02-28T10:42:18;95234.25;;;16.37;42.31
10688;BME280;5392;42.688;23.298;2024-02-28T10:44:47;95224.63;;;16.72;40.88
10688;BME280;5392;42.688;23.298;2024-02-28T10:47:17;95228.31;;;16.99;40.47
10688;BME280;5392;42.688;23.298;2024-02-28T10:49:43;95220.94;;;17.08;39.86
10688;BME280;5392;42.688;23.298;2024-02-28T10:52:11;95216.47;;;16.45;41.16
10688;BME280;5392;42.688;23.298;2024-02-28T10:54:40;95222.50;;;15.28;43.62
10688;BME280;5392;42.688;23.298;2024-02-28T10:57:08;95219.56;;;15.37;44.44
10688;BME280;5392;42.688;23.298;2024-02-28T10:59:37;95210.41;;;15.04;43.75
10688;BME280;5392;42.688;23.298;2024-02-28T11:02:03;95215.72;;;15.27;44.02
10688;BME280;5392;42.688;23.298;2024-02-28T11:04:29;95217.44;;;14.86;44.20
10688;BME280;5392;42.688;23.298;2024-02-28T11:06:56;95212.16;;;14.74;43.92
10688;BME280;5392;42.688;23.298;2024-02-28T11:09:25;95206.56;;;14.77;44.01
10688;BME280;5392;42.688;23.298;2024-02-28T11:11:51;95199.13;;;15.40;41.62
10688;BME280;5392;42.688;23.298;2024-02-28T11:14:18;95198.50;;;15.15;41.92
10688;BME280;5392;42.688;23.298;2024-02-28T11:16:48;95194.84;;;15.87;39.71
10688;BME280;5392;42.688;23.298;2024-02-28T11:19:20;95190.94;;;16.08;39.07
10688;BME280;5392;42.688;23.298;2024-02-28T11:21:55;95185.81;;;15.07;40.60
10688;BME280;5392;42.688;23.298;2024-02-28T11:24:31;95179.34;;;14.98;41.31
10688;BME280;5392;42.688;23.298;2024-02-28T11:26:58;95186.31;;;14.68;42.68
10688;BME280;5392;42.688;23.298;2024-02-28T11:29:27;95177.97;;;15.25;41.86
10688;BME280;5392;42.688;23.298;2024-02-28T11:31:56;95175.75;;;15.70;40.46
10688;BME280;5392;42.688;23.298;2024-02-28T11:34:22;95173.75;;;15.42;40.99
10688;BME280;5392;42.688;23.298;2024-02-28T11:36:48;95169.56;;;15.41;42.14
10688;BME280;5392;42.688;23.298;2024-02-28T11:39:15;95172.81;;;15.37;41.46
10688;BME280;5392;42.688;23.298;2024-02-28T11:41:41;95172.91;;;15.60;40.19
10688;BME280;5392;42.688;23.298;2024-02-28T11:44:06;95163.34;;;15.83;40.14
10688;BME280;5392;42.688;23.298;2024-02-28T11:46:32;95166.03;;;15.65;39.69
10688;BME280;5392;42.688;23.298;2024-02-28T11:48:58;95167.41;;;16.02;38.60
10688;BME280;5392;42.688;23.298;2024-02-28T11:51:25;95165.03;;;16.13;38.29
10688;BME280;5392;42.688;23.298;2024-02-28T11:53:51;95166.81;;;15.66;40.01
10688;BME280;5392;42.688;23.298;2024-02-28T11:56:16;95161.28;;;15.74;39.37
10688;BME280;5392;42.688;23.298;2024-02-28T11:58:50;95161.97;;;15.58;41.00
10688;BME280;5392;42.688;23.298;2024-02-28T12:01:15;95154.06;;;15.87;40.60
10688;BME280;5392;42.688;23.298;2024-02-28T12:03:45;95152.72;;;15.96;40.37
10688;BME280;5392;42.688;23.298;2024-02-28T12:06:11;95144.09;;;14.90;43.25
10688;BME280;5392;42.688;23.298;2024-02-28T12:08:36;95146.91;;;15.18;42.20
10688;BME280;5392;42.688;23.298;2024-02-28T12:11:08;95135.09;;;15.04;41.99
10688;BME280;5392;42.688;23.298;2024-02-28T12:13:36;95133.97;;;15.30;42.72
10688;BME280;5392;42.688;23.298;2024-02-28T12:16:03;95135.47;;;15.49;42.01
10688;BME280;5392;42.688;23.298;2024-02-28T12:18:29;95132.59;;;15.27;42.59
10688;BME280;5392;42.688;23.298;2024-02-28T12:20:55;95130.00;;;15.27;42.64
10688;BME280;5392;42.688;23.298;2024-02-28T12:23:20;95123.91;;;15.22;42.91
10688;BME280;5392;42.688;23.298;2024-02-28T12:25:46;95113.50;;;15.33;41.43
10688;BME280;5392;42.688;23.298;2024-02-28T12:28:11;95116.31;;;15.20;41.67
10688;BME280;5392;42.688;23.298;2024-02-28T12:30:42;95117.88;;;15.51;41.73
10688;BME280;5392;42.688;23.298;2024-02-28T12:33:08;95117.63;;;15.11;42.52
10688;BME280;5392;42.688;23.298;2024-02-28T12:35:34;95115.44;;;15.38;43.07
10688;BME280;5392;42.688;23.298;2024-02-28T12:37:59;95120.16;;;15.82;42.06
10688;BME280;5392;42.688;23.298;2024-02-28T12:40:25;95116.88;;;16.22;40.61
10688;BME280;5392;42.688;23.298;2024-02-28T12:42:50;95114.72;;;16.19;40.61
10688;BME280;5392;42.688;23.298;2024-02-28T12:45:16;95110.34;;;16.47;40.12
10688;BME280;5392;42.688;23.298;2024-02-28T12:47:41;95115.75;;;15.94;40.50
10688;BME280;5392;42.688;23.298;2024-02-28T12:50:07;95112.91;;;16.08;40.09
10688;BME280;5392;42.688;23.298;2024-02-28T12:52:34;95110.78;;;15.93;40.59
10688;BME280;5392;42.688;23.298;2024-02-28T12:55:00;95111.16;;;16.36;39.64
10688;BME280;5392;42.688;23.298;2024-02-28T12:57:26;95110.31;;;16.70;38.56
10688;BME280;5392;42.688;23.298;2024-02-28T12:59:51;95112.72;;;15.86;40.64
10688;BME280;5392;42.688;23.298;2024-02-28T13:02:17;95100.94;;;15.95;40.47